Time;durP1;ratioP1;P1;durP2;ratioP2;P2;SDS_P1;SDS_P2;PMS_P1;PMS_P2;Temp;Humidity;BMP_temperature;BMP_pressure;BME280_temperature;BME280_humidity;BME280_pressure;Samples;Min_cycle;Max_cycle;Signal;HPM_P1;HPM_P2
2024/01/30 00:01:17;;;;;;;7.50;3.60;;;;;;;2.64;53.89;101864.41;4953200;29;20037;-39
2024/01/30 00:03:42;;;;;;;6.93;3.80;;;;;;;2.65;54.62;101860.88;4953257;29;20062;-39
2024/01/30 00:06:08;;;;;;;6.40;3.83;;;;;;;2.84;53.85;101861.34;4953048;29;20026;-39
2024/01/30 00:08:34;;;;;;;7.13;4.35;;;;;;;2.81;53.15;101858.06;4953041;29;20055;-38
2024/01/30 00:10:59;;;;;;;7.70;4.07;;;;;;;2.59;54.01;101863.88;4953280;29;20035;-39
2024/01/30 00:13:24;;;;;;;8.07;4.35;;;;;;;2.50;54.54;101862.69;4953174;29;20477;-39
2024/01/30 00:15:50;;;;;;;8.82;4.30;;;;;;;2.34;54.91;101858.44;4953379;29;20027;-38
2024/01/30 00:18:16;;;;;;;8.13;4.00;;;;;;;2.58;54.19;101873.56;4952882;29;20451;-39
2024/01/30 00:20:42;;;;;;;8.88;4.60;;;;;;;2.51;54.53;101864.38;4952903;29;20030;-39
2024/01/30 00:23:08;;;;;;;8.82;4.32;;;;;;;2.72;53.33;101855.09;4952928;29;20031;-37
2024/01/30 00:25:33;;;;;;;6.63;4.10;;;;;;;2.77;53.51;101869.72;4953391;29;20035;-39
2024/01/30 00:27:59;;;;;;;7.68;4.20;;;;;;;2.59;54.44;101864.72;4952886;29;20460;-39
2024/01/30 00:30:24;;;;;;;7.38;3.90;;;;;;;2.70;53.54;101869.28;4952944;29;20073;-37
2024/01/30 00:32:49;;;;;;;7.60;4.05;;;;;;;2.90;53.38;101863.56;4952577;29;20511;-39
2024/01/30 00:35:15;;;;;;;5.60;3.65;;;;;;;2.70;53.73;101871.91;4952848;29;20066;-39
2024/01/30 00:37:40;;;;;;;6.90;3.70;;;;;;;2.39;54.69;101865.16;4952895;29;20057;-39
2024/01/30 00:40:06;;;;;;;5.70;3.67;;;;;;;2.57;54.26;101865.75;4952683;29;20455;-40
2024/01/30 00:42:31;;;;;;;6.03;3.88;;;;;;;2.60;54.56;101869.03;4952935;29;20034;-39
2024/01/30 00:44:57;;;;;;;6.57;3.58;;;;;;;2.51;54.38;101875.75;4952593;29;20400;-37
2024/01/30 00:47:23;;;;;;;7.25;3.60;;;;;;;2.62;54.60;101874.19;4952820;29;20019;-36
2024/01/30 00:49:49;;;;;;;8.55;4.07;;;;;;;2.28;55.07;101868.47;4952276;29;20365;-39
2024/01/30 00:52:15;;;;;;;7.85;3.95;;;;;;;2.21;54.92;101875.91;4952947;29;20169;-38
2024/01/30 00:54:41;;;;;;;8.27;4.20;;;;;;;2.45;54.87;101867.41;4952607;29;20038;-39
2024/01/30 00:57:06;;;;;;;6.43;4.00;;;;;;;2.23;55.37;101866.16;4952712;29;20028;-38
2024/01/30 00:59:31;;;;;;;6.55;3.75;;;;;;;2.26;54.93;101870.34;4952799;29;20034;-39
2024/01/30 01:01:57;;;;;;;7.75;4.13;;;;;;;2.19;55.46;101871.69;4952489;29;20460;-38
2024/01/30 01:04:22;;;;;;;6.38;3.58;;;;;;;1.60;57.07;101872.69;4954397;28;20496;-39
2024/01/30 01:06:47;;;;;;;7.43;3.90;;;;;;;1.86;56.82;101862.34;4956282;29;20082;-39
2024/01/30 01:09:13;;;;;;;5.63;3.40;;;;;;;1.93;56.08;101869.75;4956546;29;20031;-39
2024/01/30 01:11:38;;;;;;;6.90;4.20;;;;;;;2.03;56.94;101869.19;4956505;29;20465;-39
2024/01/30 01:14:04;;;;;;;8.00;4.15;;;;;;;2.39;56.22;101866.00;4956300;29;20019;-39
2024/01/30 01:16:30;;;;;;;8.13;4.30;;;;;;;2.35;56.27;101860.09;4956363;29;20087;-36
2024/01/30 01:18:55;;;;;;;8.20;3.85;;;;;;;2.51;55.81;101861.75;4956235;29;20031;-40
2024/01/30 01:21:21;;;;;;;7.38;3.92;;;;;;;2.24;56.48;101851.22;4955954;29;20392;-39
2024/01/30 01:23:46;;;;;;;7.63;3.75;;;;;;;2.17;56.25;101852.53;4956006;29;20030;-39
2024/01/30 01:26:11;;;;;;;6.47;3.90;;;;;;;2.35;56.52;101840.88;4955442;29;20023;-39
2024/01/30 01:28:39;;;;;;;7.55;3.90;;;;;;;2.49;55.22;101842.59;4955764;29;20054;-40
2024/01/30 01:31:05;;;;;;;7.13;4.28;;;;;;;2.40;55.11;101837.94;4956121;29;20057;-38
2024/01/30 01:33:32;;;;;;;7.43;4.15;;;;;;;2.18;55.36;101841.13;4955615;29;20549;-38
2024/01/30 01:35:58;;;;;;;6.57;4.10;;;;;;;2.00;56.39;101843.09;4956128;29;20039;-38
2024/01/30 01:38:24;;;;;;;8.38;4.30;;;;;;;2.14;57.12;101832.59;4956039;29;20030;-39
2024/01/30 01:40:49;;;;;;;7.30;4.45;;;;;;;2.19;56.71;101840.16;4955838;29;20027;-38
2024/01/30 01:43:14;;;;;;;7.43;4.35;;;;;;;2.30;56.73;101835.06;4955642;29;20042;-39
2024/01/30 01:45:40;;;;;;;8.48;4.35;;;;;;;2.58;55.96;101844.63;4955842;29;20055;-25
2024/01/30 01:48:06;;;;;;;7.40;4.38;;;;;;;2.29;57.15;101836.00;4955889;29;20030;-26
2024/01/30 01:50:32;;;;;;;6.75;4.28;;;;;;;2.19;56.93;101840.16;4955344;29;20102;-25
2024/01/30 01:52:58;;;;;;;6.78;4.25;;;;;;;1.75;58.28;101824.50;4955415;29;20119;-25
2024/01/30 01:55:26;;;;;;;9.32;5.15;;;;;;;1.65;58.91;101841.72;4954848;29;20031;-26
2024/01/30 01:57:53;;;;;;;6.90;3.85;;;;;;;1.89;58.29;101836.75;4955596;29;20023;-25
2024/01/30 02:00:19;;;;;;;8.15;4.40;;;;;;;1.48;60.09;101848.00;4955470;29;20027;-25
2024/01/30 02:02:46;;;;;;;10.63;5.00;;;;;;;1.44;60.23;101845.66;4955445;29;20062;-25
2024/01/30 02:05:12;;;;;;;9.80;5.18;;;;;;;1.48;61.30;101845.38;4955878;29;20027;-26
2024/01/30 02:07:38;;;;;;;10.25;5.53;;;;;;;1.58;60.76;101850.06;4936723;29;20091;-26
2024/01/30 02:10:04;;;;;;;8.98;5.00;;;;;;;1.32;61.60;101839.38;4936115;29;20027;-26
2024/01/30 02:12:29;;;;;;;10.32;5.63;;;;;;;1.17;62.53;101843.78;4936269;29;20110;-26
2024/01/30 02:14:55;;;;;;;11.07;5.55;;;;;;;1.32;62.32;101849.88;4935977;29;20039;-26
2024/01/30 02:17:21;;;;;;;9.88;4.80;;;;;;;1.36;62.95;101846.97;4935906;29;20031;-26
2024/01/30 02:19:46;;;;;;;12.00;5.22;;;;;;;1.27;63.37;101844.06;4936059;29;20015;-26
2024/01/30 02:22:12;;;;;;;10.30;5.35;;;;;;;1.20;63.07;101853.22;4935851;29;20023;-26
2024/01/30 02:24:38;;;;;;;9.50;5.28;;;;;;;1.02;63.91;101850.75;4935717;29;20028;-26
2024/01/30 02:27:03;;;;;;;12.05;5.47;;;;;;;0.97;64.17;101847.56;4936015;29;20026;-26
2024/01/30 02:29:29;;;;;;;10.27;4.85;;;;;;;1.06;63.10;101852.25;4935903;29;20080;-25
2024/01/30 02:31:54;;;;;;;10.68;5.32;;;;;;;0.58;65.09;101862.88;4935685;29;20106;-25
2024/01/30 02:34:19;;;;;;;9.70;5.35;;;;;;;0.61;65.24;101872.34;4935597;29;20039;-25
2024/01/30 02:36:45;;;;;;;10.38;5.40;;;;;;;0.46;65.73;101866.19;4935849;29;20047;-25
2024/01/30 02:39:11;;;;;;;12.30;5.40;;;;;;;0.58;65.17;101872.50;4935942;29;20034;-25
2024/01/30 02:41:36;;;;;;;9.90;5.13;;;;;;;0.64;65.59;101874.78;4935323;29;20516;-24
2024/01/30 02:44:04;;;;;;;10.88;5.60;;;;;;;0.38;66.10;101868.38;4935662;29;20188;-25
2024/01/30 02:46:30;;;;;;;10.48;5.50;;;;;;;0.29;66.38;101868.91;4935653;29;20043;-25
2024/01/30 02:48:55;;;;;;;9.75;5.20;;;;;;;0.57;65.34;101868.19;4935433;29;20027;-25
2024/01/30 02:51:21;;;;;;;11.05;5.80;;;;;;;0.39;65.49;101867.47;4935450;29;20043;-26
2024/01/30 02:53:46;;;;;;;11.40;6.28;;;;;;;0.16;66.29;101872.19;4935482;29;20019;-25
2024/01/30 02:56:13;;;;;;;11.52;5.70;;;;;;;0.08;66.77;101881.41;4935521;29;20043;-25
2024/01/30 02:58:39;;;;;;;11.38;5.80;;;;;;;0.23;66.48;101871.84;4935535;29;20059;-25
2024/01/30 03:01:05;;;;;;;11.95;5.78;;;;;;;0.35;66.86;101872.03;4935305;29;20087;-25
2024/01/30 03:03:30;;;;;;;9.40;5.78;;;;;;;0.48;66.36;101876.59;4951051;29;20078;-25
2024/01/30 03:05:56;;;;;;;9.35;5.50;;;;;;;0.47;65.58;101880.97;4954133;29;20064;-26
2024/01/30 03:08:21;;;;;;;10.90;5.72;;;;;;;0.72;64.70;101884.81;4953969;29;20042;-26
2024/01/30 03:10:46;;;;;;;13.45;6.70;;;;;;;0.65;65.76;101879.09;4953976;29;20023;-25
2024/01/30 03:13:12;;;;;;;11.10;5.63;;;;;;;0.67;64.76;101860.69;4954301;29;20054;-25
2024/01/30 03:15:37;;;;;;;11.13;6.00;;;;;;;1.01;64.07;101883.16;4954224;29;20035;-25
2024/01/30 03:18:06;;;;;;;9.88;5.32;;;;;;;0.47;65.61;101882.75;4954608;29;20086;-25
2024/01/30 03:20:31;;;;;;;13.40;6.57;;;;;;;0.52;65.78;101883.34;4953908;29;20034;-25
2024/01/30 03:22:57;;;;;;;12.38;6.20;;;;;;;0.63;65.20;101880.97;4954111;29;20023;-26
2024/01/30 03:25:22;;;;;;;13.13;6.28;;;;;;;0.75;65.02;101880.25;4954091;29;20118;-26
2024/01/30 03:27:48;;;;;;;12.68;6.68;;;;;;;0.56;66.20;101864.72;4953821;28;20031;-26
2024/01/30 03:30:14;;;;;;;13.43;6.80;;;;;;;0.93;64.46;101869.63;4953840;29;20082;-26
2024/01/30 03:32:39;;;;;;;11.85;6.57;;;;;;;0.93;64.70;101861.78;4954021;29;20059;-26
2024/01/30 03:35:05;;;;;;;12.00;6.22;;;;;;;0.75;65.25;101863.69;4954119;29;20023;-26
2024/01/30 03:37:30;;;;;;;12.57;6.70;;;;;;;0.73;65.46;101866.41;4953725;29;20086;-27
2024/01/30 03:39:56;;;;;;;14.85;6.50;;;;;;;0.88;65.43;101869.09;4953453;29;20027;-26
2024/01/30 03:42:22;;;;;;;14.07;6.45;;;;;;;0.94;64.09;101871.34;4953396;29;20054;-39
2024/01/30 03:44:47;;;;;;;12.68;7.05;;;;;;;0.86;65.16;101870.94;4953346;29;20065;-40
2024/01/30 03:47:13;;;;;;;13.70;6.53;;;;;;;0.48;66.96;101876.59;4953876;29;20016;-39
2024/01/30 03:49:38;;;;;;;13.02;7.03;;;;;;;0.71;66.62;101870.06;4953714;29;20479;-38
2024/01/30 03:52:04;;;;;;;14.63;7.10;;;;;;;0.72;67.02;101874.34;4953537;29;20065;-39
2024/01/30 03:54:29;;;;;;;11.43;6.35;;;;;;;0.81;65.89;101863.34;4953198;29;20024;-39
2024/01/30 03:56:54;;;;;;;16.33;7.18;;;;;;;0.98;66.68;101870.22;4953204;29;20027;-39
2024/01/30 03:59:23;;;;;;;17.70;7.60;;;;;;;1.09;65.67;101859.97;4953468;29;20023;-39
2024/01/30 04:01:52;;;;;;;13.13;6.75;;;;;;;1.02;65.25;101857.78;4953218;29;20442;-39
2024/01/30 04:04:18;;;;;;;17.15;7.75;;;;;;;0.96;66.15;101867.69;4936096;29;20104;-36
2024/01/30 04:06:44;;;;;;;16.33;7.32;;;;;;;0.94;65.96;101863.47;4952916;29;20488;-39
2024/01/30 04:09:09;;;;;;;18.40;8.85;;;;;;;0.97;65.83;101871.16;4952957;29;20030;-40
2024/01/30 04:11:35;;;;;;;15.18;7.65;;;;;;;0.90;66.81;101867.22;4952995;29;20023;-39
2024/01/30 04:14:00;;;;;;;15.55;7.57;;;;;;;0.54;67.34;101863.16;4952934;29;20027;-39
2024/01/30 04:16:25;;;;;;;15.32;7.40;;;;;;;0.67;67.40;101866.75;4952950;29;20075;-38
2024/01/30 04:18:52;;;;;;;17.02;7.03;;;;;;;0.56;68.39;101875.22;4953040;29;20027;-40
2024/01/30 04:21:17;;;;;;;13.57;7.05;;;;;;;0.60;67.92;101875.88;4952849;29;20031;-39
2024/01/30 04:23:43;;;;;;;16.55;7.28;;;;;;;0.68;67.38;101880.69;4952837;29;20042;-39
2024/01/30 04:26:08;;;;;;;15.35;7.28;;;;;;;0.40;68.18;101874.41;4952633;29;20030;-39
2024/01/30 04:28:34;;;;;;;15.20;7.00;;;;;;;0.23;68.50;101874.47;4952692;29;20042;-36
2024/01/30 04:30:59;;;;;;;14.05;6.70;;;;;;;0.14;68.98;101875.84;4952261;29;20031;-39
2024/01/30 04:33:24;;;;;;;12.13;6.55;;;;;;;0.35;68.51;101873.81;4934475;29;20051;-39
2024/01/30 04:35:50;;;;;;;14.30;6.70;;;;;;;0.11;68.36;101883.84;4952074;29;20560;-38
2024/01/30 04:38:15;;;;;;;13.77;6.47;;;;;;;0.23;68.05;101883.19;4951529;28;20125;-38
2024/01/30 04:40:41;;;;;;;15.90;7.07;;;;;;;0.24;68.17;101890.09;4951603;29;20034;-39
2024/01/30 04:43:06;;;;;;;12.15;6.43;;;;;;;0.32;67.46;101871.34;4952174;29;20058;-39
2024/01/30 04:45:31;;;;;;;15.10;7.80;;;;;;;0.48;67.23;101894.94;4952202;29;20480;-39
2024/01/30 04:47:57;;;;;;;14.90;7.15;;;;;;;0.85;66.28;101898.91;4952541;29;20027;-39
2024/01/30 04:50:23;;;;;;;16.15;7.13;;;;;;;0.97;66.20;101895.63;4952479;29;20028;-40
2024/01/30 04:52:48;;;;;;;12.68;6.82;;;;;;;0.92;66.59;101895.03;4952406;29;20050;-40
2024/01/30 04:55:14;;;;;;;16.20;7.35;;;;;;;0.72;66.91;101895.31;4952114;29;20419;-40
2024/01/30 04:57:39;;;;;;;12.73;6.25;;;;;;;0.92;66.37;101899.44;4952464;29;20460;-38
2024/01/30 05:00:05;;;;;;;14.65;7.20;;;;;;;0.69;67.27;101901.59;4952610;29;20023;-39
2024/01/30 05:02:30;;;;;;;13.82;6.90;;;;;;;1.07;66.72;101900.34;4953075;29;20023;-40
2024/01/30 05:04:56;;;;;;;15.52;6.82;;;;;;;1.19;65.47;101904.84;4952996;29;20023;-38
2024/01/30 05:07:22;;;;;;;15.13;8.05;;;;;;;1.04;65.65;101898.72;4952698;29;20034;-37
2024/01/30 05:09:47;;;;;;;15.07;7.40;;;;;;;0.96;65.24;101908.81;4953121;29;20384;-40
2024/01/30 05:12:13;;;;;;;13.98;7.03;;;;;;;1.12;65.32;101912.25;4952847;29;20106;-37
2024/01/30 05:14:38;;;;;;;14.50;6.80;;;;;;;1.30;64.01;101909.47;4953029;29;20463;-41
2024/01/30 05:17:04;;;;;;;14.75;7.80;;;;;;;0.96;65.23;101914.06;4953050;29;20484;-40
2024/01/30 05:19:29;;;;;;;16.20;9.10;;;;;;;1.24;64.30;101907.19;4952875;29;20023;-40
2024/01/30 05:21:54;;;;;;;15.80;7.72;;;;;;;1.00;65.31;101902.44;4951655;29;20025;-43
2024/01/30 05:24:20;;;;;;;12.75;7.30;;;;;;;1.15;64.19;101904.19;4952604;29;20034;-40
2024/01/30 05:26:45;;;;;;;12.35;6.90;;;;;;;1.21;65.32;101907.38;4952386;29;20269;-40
2024/01/30 05:29:11;;;;;;;12.45;6.63;;;;;;;1.25;63.30;101893.97;4952961;29;20483;-38
2024/01/30 05:31:36;;;;;;;16.20;7.25;;;;;;;1.19;64.04;101898.75;4952005;29;20429;-40
2024/01/30 05:34:01;;;;;;;16.10;8.25;;;;;;;1.20;64.48;101900.44;4952660;29;20372;-37
2024/01/30 05:36:27;;;;;;;14.27;7.03;;;;;;;1.09;64.43;101901.91;4952094;29;20107;-39
2024/01/30 05:38:52;;;;;;;12.93;7.53;;;;;;;1.15;65.18;101906.81;4952380;29;20098;-40
2024/01/30 05:41:18;;;;;;;15.70;7.00;;;;;;;0.95;65.21;101900.09;4934603;29;20476;-40
2024/01/30 05:43:44;;;;;;;15.55;7.65;;;;;;;1.16;64.61;101907.63;4939234;29;20099;-40
2024/01/30 05:46:09;;;;;;;14.23;7.88;;;;;;;1.06;64.75;101909.13;4951170;29;20144;-39
2024/01/30 05:48:35;;;;;;;17.80;8.52;;;;;;;1.12;65.27;101907.00;4951813;29;20027;-38
2024/01/30 05:51:01;;;;;;;18.63;8.80;;;;;;;0.92;65.49;101912.53;4954694;28;20488;-39
2024/01/30 05:53:26;;;;;;;16.23;8.00;;;;;;;0.98;65.78;101913.00;4955238;29;20027;-40
2024/01/30 05:55:52;;;;;;;18.67;8.48;;;;;;;1.29;64.20;101907.78;4955129;29;20685;-39
2024/01/30 05:58:17;;;;;;;18.15;8.82;;;;;;;1.36;64.08;101903.84;4954410;29;20023;-40
2024/01/30 06:00:42;;;;;;;13.93;7.65;;;;;;;0.93;65.82;101898.47;4952256;29;20027;-40
2024/01/30 06:03:08;;;;;;;19.40;8.05;;;;;;;1.13;64.33;101907.84;4955712;29;20019;-30
2024/01/30 06:05:33;;;;;;;16.92;8.15;;;;;;;1.20;64.38;101890.81;4955624;29;20019;-27
2024/01/30 06:07:58;;;;;;;23.65;10.32;;;;;;;1.81;80.17;101909.03;4930275;29;20024;-27
2024/01/30 06:10:24;;;;;;;18.33;9.38;;;;;;;3.64;81.94;101916.50;4936709;29;20103;-28
2024/01/30 06:12:49;;;;;;;16.77;8.85;;;;;;;4.39;70.63;101917.44;4936432;29;20477;-27
2024/01/30 06:15:14;;;;;;;15.98;8.02;;;;;;;5.33;66.29;101914.03;4942768;29;20341;-27
2024/01/30 06:17:40;;;;;;;15.50;7.60;;;;;;;5.21;56.62;101914.94;4953736;29;20027;-27
2024/01/30 06:20:06;;;;;;;16.33;8.07;;;;;;;5.43;52.52;101915.00;4955249;29;20515;-27
2024/01/30 06:22:31;;;;;;;16.80;8.75;;;;;;;3.96;54.46;101917.81;4949674;29;20042;-26
2024/01/30 06:24:57;;;;;;;13.65;7.82;;;;;;;2.92;57.24;101922.16;4955216;29;20027;-26
2024/01/30 06:27:22;;;;;;;18.23;7.50;;;;;;;2.51;59.94;101911.69;4955543;29;20022;-27
2024/01/30 06:29:47;;;;;;;14.70;7.85;;;;;;;3.05;58.19;101900.31;4955152;29;20066;-27
2024/01/30 06:32:13;;;;;;;16.33;8.20;;;;;;;3.21;57.17;101922.00;4954447;29;20055;-27
2024/01/30 06:34:39;;;;;;;16.95;8.30;;;;;;;2.65;58.55;101924.78;4955398;29;20500;-26
2024/01/30 06:37:05;;;;;;;22.98;8.00;;;;;;;2.13;60.67;101917.56;4954350;29;20039;-27
2024/01/30 06:39:30;;;;;;;20.13;8.80;;;;;;;2.15;60.62;101921.81;4955012;29;20372;-27
2024/01/30 06:41:56;;;;;;;18.95;8.27;;;;;;;1.99;62.81;101920.22;4955017;29;20031;-27
2024/01/30 06:44:21;;;;;;;14.02;8.45;;;;;;;1.85;62.89;101918.44;4955422;29;20114;-27
2024/01/30 06:46:46;;;;;;;19.08;9.68;;;;;;;1.89;64.53;101919.94;4955623;29;20024;-27
2024/01/30 06:49:12;;;;;;;15.80;8.57;;;;;;;1.66;63.94;101919.56;4938232;29;20117;-26
2024/01/30 06:51:37;;;;;;;26.83;10.73;;;;;;;1.66;63.89;101927.44;4954712;29;20038;-26
2024/01/30 06:54:03;;;;;;;21.88;11.15;;;;;;;1.70;64.35;101920.22;4953390;29;20085;-27
2024/01/30 06:56:28;;;;;;;20.05;9.80;;;;;;;1.75;64.72;101918.13;4952149;29;20483;-26
2024/01/30 06:58:54;;;;;;;15.50;9.07;;;;;;;1.65;64.14;101923.09;4950943;29;20031;-27
2024/01/30 07:01:19;;;;;;;17.25;9.27;;;;;;;1.65;64.11;101922.25;4952896;28;20023;-26
2024/01/30 07:03:44;;;;;;;19.13;9.70;;;;;;;1.80;63.84;101931.00;4953804;29;20031;-27
2024/01/30 07:06:13;;;;;;;21.98;10.18;;;;;;;1.94;63.10;101934.47;4955005;29;20480;-27
2024/01/30 07:08:38;;;;;;;17.25;8.95;;;;;;;1.98;62.19;101934.28;4954568;29;20027;-28
2024/01/30 07:11:05;;;;;;;18.83;8.77;;;;;;;1.75;64.03;101918.13;4954513;29;20122;-27
2024/01/30 07:13:31;;;;;;;17.95;8.43;;;;;;;1.84;63.28;101933.34;4954578;29;20581;-27
2024/01/30 07:15:56;;;;;;;14.32;8.27;;;;;;;1.63;64.52;101924.13;4954004;29;20122;-26
2024/01/30 07:18:21;;;;;;;19.23;9.88;;;;;;;1.93;63.63;101931.94;4954110;29;20023;-26
2024/01/30 07:20:47;;;;;;;17.23;9.45;;;;;;;1.84;63.31;101925.47;4954015;29;20176;-27
2024/01/30 07:23:15;;;;;;;19.10;9.20;;;;;;;1.49;64.57;101919.72;4954003;29;20404;-24
2024/01/30 07:25:41;;;;;;;16.98;8.32;;;;;;;1.92;63.13;101925.84;4950712;29;20460;-27
2024/01/30 07:28:10;;;;;;;17.67;9.05;;;;;;;1.76;63.71;101935.59;4937792;29;20172;-26
2024/01/30 07:30:36;;;;;;;19.75;9.00;;;;;;;2.13;62.62;101935.94;4934813;29;20508;-27
2024/01/30 07:33:02;;;;;;;20.50;9.30;;;;;;;1.99;62.43;101941.22;4934497;29;20187;-27
2024/01/30 07:35:27;;;;;;;17.85;9.15;;;;;;;2.15;62.97;101942.81;4934373;29;20036;-28
2024/01/30 07:37:53;;;;;;;21.88;9.38;;;;;;;2.25;61.40;101937.00;4934900;29;20036;-26
2024/01/30 07:40:18;;;;;;;17.63;8.50;;;;;;;2.07;61.60;101934.56;4934403;29;20047;-27
2024/01/30 07:42:44;;;;;;;21.95;9.98;;;;;;;1.98;61.85;101931.66;4934764;29;20412;-26
2024/01/30 07:45:09;;;;;;;20.15;9.02;;;;;;;2.49;78.40;101942.47;4934480;29;20036;-27
2024/01/30 07:47:35;;;;;;;18.33;7.22;;;;;;;3.99;72.62;101944.81;4934183;29;20042;-26
2024/01/30 07:50:00;;;;;;;21.83;9.82;;;;;;;5.49;67.50;101938.31;4934739;29;20031;-27
2024/01/30 07:52:26;;;;;;;27.75;9.77;;;;;;;5.42;67.42;101944.16;4934624;29;20090;-27
2024/01/30 07:54:51;;;;;;;26.70;11.32;;;;;;;6.24;59.88;101936.09;4934342;29;20118;-27
2024/01/30 07:57:17;;;;;;;21.90;10.13;;;;;;;6.87;56.19;101938.13;4933822;29;20035;-27
2024/01/30 07:59:46;;;;;;;23.02;9.65;;;;;;;6.26;53.93;101942.97;4949290;29;20492;-26
2024/01/30 08:02:13;;;;;;;16.95;7.55;;;;;;;7.11;58.39;101940.56;4953418;29;20035;-26
2024/01/30 08:04:38;;;;;;;17.50;7.60;;;;;;;7.03;53.61;101941.22;4953567;29;20388;-27
2024/01/30 08:07:04;;;;;;;13.93;7.05;;;;;;;7.80;55.07;101945.34;4954483;29;20416;-27
2024/01/30 08:09:29;;;;;;;13.77;7.82;;;;;;;6.95;46.01;101940.97;4953759;29;20031;-27
2024/01/30 08:11:55;;;;;;;19.75;8.43;;;;;;;5.78;48.08;101934.38;4954500;29;20035;-28
2024/01/30 08:14:20;;;;;;;21.55;9.60;;;;;;;4.84;50.85;101937.00;4953917;28;20361;-26
2024/01/30 08:16:45;;;;;;;31.88;11.90;;;;;;;4.07;52.39;101931.97;4953951;29;20086;-30
2024/01/30 08:19:11;;;;;;;19.98;8.40;;;;;;;3.86;52.97;101928.16;4953489;29;20063;-28
2024/01/30 08:21:36;;;;;;;24.95;9.20;;;;;;;2.96;55.17;101912.28;4953222;29;20110;-28
2024/01/30 08:24:05;;;;;;;20.77;8.07;;;;;;;2.68;56.25;101923.75;4953337;29;20030;-26
2024/01/30 08:26:34;;;;;;;32.70;11.82;;;;;;;2.96;56.84;101937.75;4950569;29;20142;-27
2024/01/30 08:29:00;;;;;;;35.08;12.60;;;;;;;3.55;54.99;101934.72;4952869;29;20534;-27
2024/01/30 08:31:26;;;;;;;23.92;8.85;;;;;;;3.60;54.17;101920.28;4953626;29;20066;-29
2024/01/30 08:33:52;;;;;;;30.60;10.18;;;;;;;3.65;53.78;101926.06;4953467;29;20061;-27
2024/01/30 08:36:18;;;;;;;39.22;11.65;;;;;;;3.09;54.78;101928.94;4952894;29;20031;-28
2024/01/30 08:38:43;;;;;;;26.63;9.75;;;;;;;3.04;54.73;101932.81;4953327;29;20031;-27
2024/01/30 08:41:09;;;;;;;18.90;8.25;;;;;;;3.01;56.07;101933.88;4953430;29;20034;-26
2024/01/30 08:43:36;;;;;;;28.55;10.90;;;;;;;3.15;54.92;101918.97;4953127;29;20393;-27
2024/01/30 08:46:01;;;;;;;18.42;8.52;;;;;;;3.19;54.55;101936.22;4953350;29;20090;-27
2024/01/30 08:48:27;;;;;;;10.73;5.85;;;;;;;3.31;54.20;101922.25;4953375;29;20163;-28
2024/01/30 08:50:53;;;;;;;9.77;5.50;;;;;;;3.07;54.26;101930.00;4953180;29;20039;-27
2024/01/30 08:53:18;;;;;;;11.45;5.00;;;;;;;3.11;54.19;101934.94;4948126;29;20028;-26
2024/01/30 08:55:44;;;;;;;8.43;4.93;;;;;;;3.21;54.03;101932.53;4924613;29;20027;-27
2024/01/30 08:58:10;;;;;;;8.73;5.05;;;;;;;3.28;53.41;101933.81;4934257;29;20034;-30
2024/01/30 09:00:35;;;;;;;8.98;5.40;;;;;;;3.70;52.52;101936.28;4933861;29;20032;-28
2024/01/30 09:03:00;;;;;;;9.63;5.28;;;;;;;3.47;52.38;101927.34;4933629;29;20035;-27
2024/01/30 09:05:25;;;;;;;11.25;5.57;;;;;;;3.64;52.35;101931.44;4933716;29;20111;-29
2024/01/30 09:07:51;;;;;;;12.45;5.47;;;;;;;3.91;51.70;101926.91;4933181;29;20123;-29
2024/01/30 09:10:16;;;;;;;10.10;5.30;;;;;;;3.85;51.34;101929.97;4933418;29;20040;-27
2024/01/30 09:12:42;;;;;;;11.82;5.38;;;;;;;3.29;52.67;101914.47;4933211;29;20119;-28
2024/01/30 09:15:07;;;;;;;10.80;5.07;;;;;;;3.50;51.63;101921.84;4939581;29;20035;-28
2024/01/30 09:17:33;;;;;;;7.90;4.70;;;;;;;3.81;50.86;101925.00;4952281;29;20498;-27
2024/01/30 09:19:59;;;;;;;7.22;4.80;;;;;;;3.96;50.00;101921.34;4952162;29;20110;-27
2024/01/30 09:22:24;;;;;;;8.38;4.63;;;;;;;3.49;51.59;101910.47;4952358;29;20035;-27
2024/01/30 09:24:50;;;;;;;7.82;4.50;;;;;;;3.65;51.17;101909.41;4953674;28;20114;-28
2024/01/30 09:27:15;;;;;;;11.32;4.78;;;;;;;3.82;51.30;101906.47;4956295;29;20027;-26
2024/01/30 09:29:40;;;;;;;11.05;4.90;;;;;;;3.98;50.84;101911.53;4956376;29;20058;-28
2024/01/30 09:32:06;;;;;;;8.30;5.07;;;;;;;4.03;50.51;101905.91;4956110;29;20083;-28
2024/01/30 09:34:32;;;;;;;9.43;4.70;;;;;;;4.20;49.88;101908.19;4956667;29;20042;-27
2024/01/30 09:37:01;;;;;;;8.98;5.22;;;;;;;3.72;51.91;101898.34;4955826;29;20027;-26
2024/01/30 09:39:26;;;;;;;9.75;4.88;;;;;;;3.96;50.98;101899.38;4956205;29;20059;-27
2024/01/30 09:42:15;;;;;;;12.10;6.03;;;;;;;4.27;49.70;101896.28;4955770;29;20074;-29
2024/01/30 09:44:43;;;;;;;8.80;5.05;;;;;;;4.24;50.34;101880.66;4955601;29;20102;-27
2024/01/30 09:47:09;;;;;;;10.98;5.28;;;;;;;3.95;50.17;101876.63;4955859;29;20094;-28
2024/01/30 09:49:35;;;;;;;10.95;5.40;;;;;;;3.89;50.75;101896.34;4955874;29;20515;-29
2024/01/30 09:52:02;;;;;;;8.52;4.90;;;;;;;3.93;50.89;101884.66;4956174;29;20073;-27
2024/01/30 09:54:31;;;;;;;11.10;6.00;;;;;;;3.91;52.24;101892.66;4955999;29;20480;-28
2024/01/30 09:56:57;;;;;;;9.73;5.27;;;;;;;3.61;51.89;101876.34;4955932;29;20118;-27
2024/01/30 09:59:23;;;;;;;8.90;5.35;;;;;;;4.05;50.21;101883.78;4955829;29;20278;-26
2024/01/30 10:01:50;;;;;;;9.50;5.00;;;;;;;4.08;50.49;101880.94;4955784;29;20031;-27
2024/01/30 10:04:15;;;;;;;14.23;4.82;;;;;;;4.06;50.61;101882.00;4955986;29;20054;-27
2024/01/30 10:06:41;;;;;;;9.55;5.15;;;;;;;4.40;50.49;101877.78;4955699;29;20476;-28
2024/01/30 10:09:08;;;;;;;13.27;6.43;;;;;;;4.38;49.52;101882.31;4955798;29;20158;-27
2024/01/30 10:11:33;;;;;;;13.85;6.05;;;;;;;4.54;49.42;101874.13;4955585;29;20162;-28
2024/01/30 10:14:00;;;;;;;15.32;5.75;;;;;;;4.60;49.02;101880.75;4955424;29;20127;-28
2024/01/30 10:16:25;;;;;;;11.10;5.68;;;;;;;4.60;49.35;101880.75;4954932;29;20033;-27
2024/01/30 10:18:50;;;;;;;12.05;6.60;;;;;;;4.84;48.31;101870.19;4955448;29;20345;-26
2024/01/30 10:21:16;;;;;;;11.48;6.60;;;;;;;4.86;48.28;101878.84;4955474;29;20218;-28
2024/01/30 10:23:44;;;;;;;11.35;5.93;;;;;;;5.14;47.38;101866.19;4955597;29;20375;-28
2024/01/30 10:26:09;;;;;;;11.05;5.93;;;;;;;5.07;46.87;101873.75;4954285;29;20042;-30
2024/01/30 10:28:35;;;;;;;12.65;6.60;;;;;;;5.24;46.98;101867.19;4935881;29;20493;-27
2024/01/30 10:31:00;;;;;;;16.75;6.38;;;;;;;4.96;47.66;101876.34;4936131;29;20015;-27
2024/01/30 10:33:27;;;;;;;11.70;6.60;;;;;;;5.22;47.39;101858.56;4949818;29;20439;-28
2024/01/30 10:35:59;;;;;;;12.18;6.80;;;;;;;5.38;46.70;101871.41;4953917;28;20028;-29
2024/01/30 10:38:29;;;;;;;11.55;6.70;;;;;;;5.33;46.33;101873.56;4954925;29;20042;-28
2024/01/30 10:40:57;;;;;;;9.88;6.35;;;;;;;5.40;46.57;101864.22;4938586;29;20027;-28
2024/01/30 10:43:24;;;;;;;11.77;6.32;;;;;;;5.27;46.52;101851.97;4952330;29;20041;-28
2024/01/30 10:45:53;;;;;;;11.23;6.72;;;;;;;5.59;45.72;101866.28;4947036;29;20019;-27
2024/01/30 10:48:21;;;;;;;9.27;5.68;;;;;;;5.73;44.82;101860.78;4955136;29;20055;-29
2024/01/30 10:50:47;;;;;;;9.95;5.38;;;;;;;5.54;44.92;101848.16;4955398;29;20054;-27
2024/01/30 10:53:14;;;;;;;10.80;5.97;;;;;;;5.25;46.43;101861.81;4955243;29;20030;-27
2024/01/30 10:55:40;;;;;;;10.85;6.20;;;;;;;5.33;46.03;101857.72;4955297;29;20033;-28
2024/01/30 10:58:05;;;;;;;12.90;6.38;;;;;;;5.60;45.54;101852.13;4955258;29;20077;-29
2024/01/30 11:00:33;;;;;;;10.43;6.38;;;;;;;5.65;45.37;101853.47;4955369;29;20046;-25
2024/01/30 11:02:58;;;;;;;11.70;6.53;;;;;;;5.80;44.99;101851.38;4953670;29;20037;-26
2024/01/30 11:05:26;;;;;;;13.55;6.97;;;;;;;5.89;44.99;101849.84;4953559;29;20106;-27
2024/01/30 11:07:51;;;;;;;13.73;6.28;;;;;;;5.46;45.34;101846.13;4953834;29;20557;-28
2024/01/30 11:10:17;;;;;;;11.25;5.90;;;;;;;5.77;44.60;101840.22;4953384;29;20035;-27
2024/01/30 11:12:43;;;;;;;11.70;6.57;;;;;;;6.14;43.66;101838.16;4953330;29;20031;-28
2024/01/30 11:15:14;;;;;;;11.45;6.18;;;;;;;6.05;43.74;101821.25;4953477;29;20387;-27
2024/01/30 11:17:44;;;;;;;13.07;5.85;;;;;;;5.91;43.75;101836.50;4953209;29;20039;-27
2024/01/30 11:20:11;;;;;;;8.02;4.50;;;;;;;6.31;42.48;101839.44;4953278;29;20522;-28